Time;durP1;ratioP1;P1;durP2;ratioP2;P2;SDS_P1;SDS_P2;PMS_P1;PMS_P2;Temp;Humidity;BMP_temperature;BMP_pressure;BME280_temperature;BME280_humidity;BME280_pressure;Samples;Min_cycle;Max_cycle;Signal;HPM_P1;HPM_P2
2023/05/22 00:01:25;;;;;;;13.57;11.30;;;;;;;19.35;61.44;100158.22;4129347;28;20077;-65
2023/05/22 00:03:29;;;;;;;17.50;12.45;;;;;;;19.33;61.24;100156.53;4129359;28;20053;-65
2023/05/22 00:05:33;;;;;;;15.95;11.20;;;;;;;19.27;61.35;100162.84;4130427;28;20426;-65
2023/05/22 00:07:36;;;;;;;14.20;12.68;;;;;;;19.28;61.53;100155.81;4130875;28;20038;-65
2023/05/22 00:09:39;;;;;;;13.07;11.68;;;;;;;19.22;61.97;100163.88;4130575;28;20461;-65
2023/05/22 00:11:43;;;;;;;13.18;11.63;;;;;;;19.23;62.43;100160.31;4129571;28;20128;-65
2023/05/22 00:13:46;;;;;;;;;;;;;;;19.10;62.81;100165.94;4114352;28;20093;-65
2023/05/22 00:15:49;;;;;;;16.77;11.95;;;;;;;19.08;62.53;100156.31;4126079;28;19980;-66
2023/05/22 00:17:52;;;;;;;15.32;11.25;;;;;;;19.10;62.44;100157.13;4130427;28;20073;-66
2023/05/22 00:20:03;;;;;;;13.45;11.23;;;;;;;19.08;62.62;100149.28;4130950;28;20500;-66
2023/05/22 00:22:06;;;;;;;12.82;11.43;;;;;;;19.08;62.31;100156.31;4128716;28;20046;-65
2023/05/22 00:24:09;;;;;;;18.73;12.23;;;;;;;19.08;62.46;100151.06;4128933;28;20137;-66
2023/05/22 00:26:15;;;;;;;14.30;10.63;;;;;;;19.05;62.71;100152.00;4130747;28;20043;-65
2023/05/22 00:28:19;;;;;;;15.05;11.75;;;;;;;19.03;62.78;100159.09;4129541;28;20061;-65
2023/05/22 00:30:22;;;;;;;18.92;12.05;;;;;;;19.02;62.59;100152.06;4113369;28;20050;-65
2023/05/22 00:32:25;;;;;;;13.38;11.48;;;;;;;18.98;63.21;100147.78;4130363;28;20034;-65
2023/05/22 00:34:28;;;;;;;12.70;11.18;;;;;;;18.94;62.62;100154.03;4130573;28;20517;-65
2023/05/22 00:36:31;;;;;;;13.38;11.77;;;;;;;18.88;62.31;100147.19;4130526;28;20540;-65
2023/05/22 00:38:36;;;;;;;14.10;11.45;;;;;;;18.79;62.63;100142.09;4130503;28;20034;-65
2023/05/22 00:40:39;;;;;;;;;;;;;;;18.68;62.81;100142.38;4130135;28;20388;-65
2023/05/22 00:42:45;;;;;;;12.77;10.23;;;;;;;18.69;62.76;100141.47;4145284;28;20147;-65
2023/05/22 00:44:50;;;;;;;14.18;12.68;;;;;;;18.74;62.80;100138.72;4129324;28;20500;-65
2023/05/22 00:46:53;;;;;;;16.35;12.65;;;;;;;18.75;62.79;100143.94;4129384;28;20416;-64
2023/05/22 00:48:56;;;;;;;15.75;12.57;;;;;;;18.77;62.69;100142.13;4129720;28;20428;-65
2023/05/22 00:51:00;;;;;;;15.02;12.00;;;;;;;18.77;63.45;100150.03;4125677;28;20030;-65
2023/05/22 00:53:03;;;;;;;15.43;12.35;;;;;;;18.73;64.19;100144.88;4128764;28;20129;-65
2023/05/22 00:55:07;;;;;;;17.02;12.82;;;;;;;18.68;64.20;100150.25;4129050;28;20068;-66
2023/05/22 00:57:10;;;;;;;;;;;;;;;18.51;65.14;100144.53;4131087;28;20030;-63
2023/05/22 00:59:13;;;;;;;13.52;11.70;;;;;;;18.52;64.69;100147.13;4125827;28;20387;-65
2023/05/22 01:01:17;;;;;;;15.57;11.90;;;;;;;18.55;64.59;100146.19;4112619;28;20047;-65
2023/05/22 01:03:24;;;;;;;16.92;12.23;;;;;;;18.49;64.52;100145.44;4128679;28;20038;-63
2023/05/22 01:05:29;;;;;;;16.08;13.07;;;;;;;18.47;64.46;100143.72;4129040;28;20049;-65
2023/05/22 01:07:32;;;;;;;19.35;12.85;;;;;;;18.48;64.90;100153.34;4128738;28;20034;-65
2023/05/22 01:09:34;;;;;;;15.15;12.05;;;;;;;18.48;64.85;100146.31;4129478;28;20050;-63
2023/05/22 01:11:43;;;;;;;15.73;12.70;;;;;;;18.53;65.41;100156.75;4129956;28;20180;-63
2023/05/22 01:13:54;;;;;;;15.05;11.93;;;;;;;18.54;65.42;100160.25;4129195;28;20807;-65
2023/05/22 01:16:11;;;;;;;15.50;12.75;;;;;;;18.52;65.43;100154.16;4128836;28;20053;-65
2023/05/22 01:18:28;;;;;;;16.65;13.07;;;;;;;18.41;65.44;100165.81;4125809;28;20129;-65
2023/05/22 01:20:36;;;;;;;15.70;12.82;;;;;;;18.34;65.63;100164.22;4112228;28;20045;-65
2023/05/22 01:23:12;;;;;;;14.65;12.15;;;;;;;18.26;65.54;100160.88;4129751;28;20034;-65
2023/05/22 01:25:35;;;;;;;13.77;11.63;;;;;;;18.13;65.80;100158.50;4090508;28;20053;-63
2023/05/22 01:28:08;;;;;;;14.40;12.82;;;;;;;17.98;66.18;100164.13;4129475;28;20100;-65
2023/05/22 01:30:27;;;;;;;14.60;13.10;;;;;;;17.99;65.97;100157.97;4142156;28;20056;-63
2023/05/22 01:32:34;;;;;;;15.88;12.75;;;;;;;18.06;66.11;100163.94;4126322;28;20042;-63
2023/05/22 01:34:40;;;;;;;14.13;12.63;;;;;;;18.08;65.94;100152.50;4112218;28;20047;-63
2023/05/22 01:36:46;;;;;;;14.68;12.85;;;;;;;18.12;65.81;100161.19;4128028;28;20437;-65
2023/05/22 01:38:50;;;;;;;17.13;14.35;;;;;;;18.14;65.92;100157.63;4141858;28;20484;-64
2023/05/22 01:40:54;;;;;;;18.88;12.85;;;;;;;18.13;65.72;100155.03;4128542;28;20037;-63
2023/05/22 01:42:58;;;;;;;17.10;14.07;;;;;;;18.12;65.83;100156.78;4127906;28;20045;-63
2023/05/22 01:45:01;;;;;;;17.67;14.77;;;;;;;18.12;65.56;100154.16;4128353;28;20039;-63
2023/05/22 01:47:04;;;;;;;14.93;13.07;;;;;;;18.12;65.67;100162.06;4127596;28;20555;-63
2023/05/22 01:49:09;;;;;;;15.13;13.43;;;;;;;18.15;65.51;100158.50;4125541;28;20038;-66
2023/05/22 01:51:20;;;;;;;15.20;13.25;;;;;;;18.18;65.70;100163.69;4124902;28;20133;-63
2023/05/22 01:53:29;;;;;;;15.20;13.35;;;;;;;18.21;65.70;100165.38;4142222;28;20133;-63
2023/05/22 01:55:41;;;;;;;15.95;12.80;;;;;;;18.19;66.06;100160.16;4127764;28;20536;-63
2023/05/22 01:57:52;;;;;;;15.52;13.02;;;;;;;18.12;66.04;100161.19;4128332;28;20129;-65
2023/05/22 02:00:01;;;;;;;17.52;13.52;;;;;;;18.07;66.28;100161.28;4124174;28;20061;-63
2023/05/22 02:02:07;;;;;;;17.83;14.48;;;;;;;18.07;66.53;100155.16;4127836;28;20058;-64
2023/05/22 02:04:15;;;;;;;14.45;12.60;;;;;;;18.10;66.05;100160.34;4124696;28;20048;-64
2023/05/22 02:06:19;;;;;;;15.02;12.25;;;;;;;18.11;66.10;100162.09;4129150;28;20046;-64
2023/05/22 02:08:23;;;;;;;;;;;;;;;18.02;66.49;100168.41;4112010;28;20042;-63
2023/05/22 02:10:29;;;;;;;16.70;14.93;;;;;;;18.06;65.82;100166.56;4111640;28;19922;-63
2023/05/22 02:12:31;;;;;;;18.30;13.98;;;;;;;18.12;65.81;100164.69;4127558;28;20038;-64
2023/05/22 02:14:35;;;;;;;16.75;13.60;;;;;;;18.17;65.74;100167.22;4111457;28;20042;-64
2023/05/22 02:16:38;;;;;;;15.27;12.40;;;;;;;18.19;66.47;100167.19;4141864;28;20030;-64
2023/05/22 02:18:42;;;;;;;15.00;12.95;;;;;;;18.18;66.35;100168.97;4125985;28;20062;-64
2023/05/22 02:20:47;;;;;;;15.93;13.90;;;;;;;18.13;66.58;100169.03;4142013;28;20045;-64
2023/05/22 02:22:49;;;;;;;14.77;13.23;;;;;;;18.10;66.48;100174.38;4127353;28;20045;-64
2023/05/22 02:24:52;;;;;;;15.52;13.68;;;;;;;18.07;66.52;100173.56;4125906;28;20046;-64
2023/05/22 02:26:55;;;;;;;15.32;13.35;;;;;;;18.03;66.64;100170.13;4141469;28;20042;-64
2023/05/22 02:28:59;;;;;;;18.92;13.38;;;;;;;17.99;66.72;100163.22;4126529;28;20050;-64
2023/05/22 02:31:03;;;;;;;15.10;13.50;;;;;;;17.98;66.97;100168.53;4126388;28;20496;-64
2023/05/22 02:33:08;;;;;;;19.53;14.33;;;;;;;17.96;67.02;100179.06;4126576;28;20165;-63
2023/05/22 02:35:11;;;;;;;16.70;14.90;;;;;;;17.95;66.96;100177.34;4127636;28;20042;-64
2023/05/22 02:37:15;;;;;;;15.23;13.40;;;;;;;17.93;67.14;100173.84;4140425;28;20038;-64
2023/05/22 02:39:18;;;;;;;17.38;13.85;;;;;;;17.92;67.32;100173.00;4127479;28;20034;-64
2023/05/22 02:41:21;;;;;;;14.20;11.95;;;;;;;17.95;67.32;100174.72;4127291;28;20165;-64
2023/05/22 02:43:24;;;;;;;15.30;13.07;;;;;;;17.89;67.99;100170.41;4115226;28;20047;-63
2023/05/22 02:45:27;;;;;;;16.05;13.45;;;;;;;17.83;68.21;100169.66;4127433;28;20094;-64
2023/05/22 02:47:30;;;;;;;18.48;13.77;;;;;;;17.80;68.14;100168.81;4129360;28;20038;-64
2023/05/22 02:49:33;;;;;;;16.52;14.43;;;;;;;17.80;68.32;100168.81;4114767;28;21649;-63
2023/05/22 02:51:36;;;;;;;15.27;13.68;;;;;;;17.80;68.03;100176.72;4118318;28;20126;-64
2023/05/22 02:53:41;;;;;;;17.30;14.15;;;;;;;17.84;68.16;100179.28;4130368;28;20073;-63
2023/05/22 02:55:44;;;;;;;17.80;13.95;;;;;;;17.80;68.22;100181.97;4132108;28;20134;-64
2023/05/22 02:57:47;;;;;;;19.88;13.35;;;;;;;17.80;68.14;100179.34;4130542;28;20121;-64
2023/05/22 02:59:51;;;;;;;14.93;13.32;;;;;;;17.82;68.15;100186.34;4130065;28;20149;-64
2023/05/22 03:01:54;;;;;;;18.35;13.55;;;;;;;17.77;68.23;100173.25;4130182;28;20068;-64
2023/05/22 03:03:58;;;;;;;16.58;13.80;;;;;;;17.71;68.21;100179.53;4128167;28;20034;-64
2023/05/22 03:06:03;;;;;;;17.98;13.57;;;;;;;17.67;68.40;100172.59;4130747;28;20057;-64
2023/05/22 03:08:07;;;;;;;16.33;14.63;;;;;;;17.62;68.47;100172.69;4146982;28;20132;-64
2023/05/22 03:10:12;;;;;;;18.52;15.23;;;;;;;17.62;68.49;100180.59;4130699;28;20559;-64
2023/05/22 03:12:15;;;;;;;17.73;14.13;;;;;;;17.62;68.53;100169.19;4131407;28;20100;-63
2023/05/22 03:14:20;;;;;;;18.00;14.35;;;;;;;17.65;68.36;100179.63;4130355;28;20408;-63
2023/05/22 03:16:23;;;;;;;15.23;13.05;;;;;;;17.65;68.68;100176.16;4144525;28;20037;-63
2023/05/22 03:18:26;;;;;;;16.42;14.05;;;;;;;17.66;68.88;100184.00;4121088;28;20062;-63
2023/05/22 03:20:31;;;;;;;14.35;12.85;;;;;;;17.64;68.89;100183.19;4146197;28;20045;-63
2023/05/22 03:22:34;;;;;;;16.33;13.95;;;;;;;17.60;68.91;100184.13;4130623;28;20121;-64
2023/05/22 03:24:37;;;;;;;15.40;13.73;;;;;;;17.55;69.06;100189.47;4130326;28;20374;-63
2023/05/22 03:26:42;;;;;;;17.23;13.77;;;;;;;17.56;68.95;100188.56;4114856;28;20050;-63
2023/05/22 03:28:51;;;;;;;15.75;14.02;;;;;;;17.56;69.10;100185.09;4130988;28;20043;-63
2023/05/22 03:30:55;;;;;;;15.35;13.75;;;;;;;17.54;69.12;100182.47;4129845;28;20035;-63
2023/05/22 03:33:02;;;;;;;14.82;13.05;;;;;;;17.54;68.99;100190.38;4129892;28;20046;-63
2023/05/22 03:35:06;;;;;;;16.98;14.35;;;;;;;17.54;68.90;100193.00;4130578;28;20140;-63
2023/05/22 03:37:09;;;;;;;16.23;14.10;;;;;;;17.49;69.19;100193.97;4130654;28;20483;-64
2023/05/22 03:39:11;;;;;;;17.40;14.07;;;;;;;17.49;69.22;100196.59;4114040;28;20106;-64
2023/05/22 03:41:23;;;;;;;19.42;15.05;;;;;;;17.48;68.98;100194.84;4129831;28;21164;-64
2023/05/22 03:43:27;;;;;;;17.50;14.82;;;;;;;17.51;68.99;100200.06;4144426;28;20078;-64
2023/05/22 03:45:30;;;;;;;18.27;13.52;;;;;;;17.48;69.03;100200.13;4128172;28;20489;-64
2023/05/22 03:47:33;;;;;;;16.02;13.65;;;;;;;17.48;69.08;100202.75;4112738;28;20035;-64
2023/05/22 03:49:37;;;;;;;15.30;13.43;;;;;;;17.46;69.39;100200.16;4128344;28;20038;-64
2023/05/22 03:51:40;;;;;;;15.32;13.65;;;;;;;17.41;69.54;100194.97;4130605;28;20174;-64
2023/05/22 03:53:43;;;;;;;18.55;16.05;;;;;;;17.41;69.39;100202.00;4128086;28;20065;-64
2023/05/22 03:55:46;;;;;;;17.10;15.00;;;;;;;17.34;69.63;100203.88;4127775;28;20070;-64
2023/05/22 03:57:48;;;;;;;20.23;15.77;;;;;;;17.32;69.49;100197.78;4126821;28;20046;-64
2023/05/22 03:59:53;;;;;;;19.48;15.50;;;;;;;17.32;69.66;100202.16;4147294;28;20048;-65
2023/05/22 04:01:57;;;;;;;19.10;15.75;;;;;;;17.37;69.65;100198.56;4128360;28;20046;-64
2023/05/22 04:04:00;;;;;;;17.00;14.43;;;;;;;17.42;69.33;100187.94;4142012;28;20164;-64
2023/05/22 04:06:04;;;;;;;17.27;14.10;;;;;;;17.47;69.40;100198.41;4127120;28;20389;-64
2023/05/22 04:08:07;;;;;;;19.90;14.75;;;;;;;17.62;68.71;100192.84;4129879;28;20603;-62
2023/05/22 04:10:12;;;;;;;17.17;14.10;;;;;;;17.70;69.00;100204.09;4126477;28;20069;-63
2023/05/22 04:12:15;;;;;;;17.20;15.18;;;;;;;17.57;69.33;100207.84;4144234;28;20137;-62
2023/05/22 04:14:17;;;;;;;17.05;14.15;;;;;;;17.43;69.58;100208.97;4128148;28;20125;-62
2023/05/22 04:16:22;;;;;;;15.02;13.18;;;;;;;17.34;69.95;100203.88;4128697;28;20508;-62
2023/05/22 04:18:25;;;;;;;16.20;13.70;;;;;;;17.22;70.27;100206.72;4110497;28;20131;-62
2023/05/22 04:20:28;;;;;;;16.63;13.20;;;;;;;17.15;70.64;100205.94;4129020;28;20030;-62
2023/05/22 04:22:32;;;;;;;15.55;12.85;;;;;;;17.12;70.57;100211.25;4123541;28;20058;-62
2023/05/22 04:24:35;;;;;;;15.40;13.75;;;;;;;17.12;70.56;100206.00;4125822;28;20048;-62
2023/05/22 04:26:45;;;;;;;16.17;14.48;;;;;;;17.12;70.56;100215.66;4134822;28;20380;-63
2023/05/22 04:28:51;;;;;;;18.50;14.20;;;;;;;17.09;70.69;100216.56;4128816;28;20046;-62
2023/05/22 04:30:56;;;;;;;18.25;15.02;;;;;;;17.08;70.89;100212.19;4111388;28;20042;-62
2023/05/22 04:33:00;;;;;;;17.27;13.52;;;;;;;17.11;70.96;100217.41;4128662;28;20494;-62
2023/05/22 04:35:05;;;;;;;14.73;13.10;;;;;;;17.13;70.89;100217.38;4129739;28;20467;-62
2023/05/22 04:37:09;;;;;;;17.02;15.23;;;;;;;17.10;70.86;100218.31;4129259;28;20050;-62
2023/05/22 04:39:12;;;;;;;17.33;14.63;;;;;;;17.14;70.78;100224.38;4144718;28;20041;-62
2023/05/22 04:41:16;;;;;;;19.02;16.05;;;;;;;17.14;70.84;100230.47;4130268;28;20401;-62
2023/05/22 04:43:22;;;;;;;20.60;15.75;;;;;;;17.18;70.64;100224.28;4129894;28;20048;-62
2023/05/22 04:45:25;;;;;;;18.00;16.10;;;;;;;17.23;70.68;100226.81;4129211;28;20137;-62
2023/05/22 04:47:30;;;;;;;17.05;15.18;;;;;;;17.27;70.50;100225.88;4131076;28;20165;-62
2023/05/22 04:49:39;;;;;;;17.58;14.82;;;;;;;17.33;70.42;100224.91;4128781;28;20556;-62
2023/05/22 04:51:41;;;;;;;18.77;15.15;;;;;;;17.37;70.44;100230.09;4128214;28;20401;-62
2023/05/22 04:53:48;;;;;;;16.73;14.93;;;;;;;17.37;70.63;100221.34;4128795;28;20093;-63
2023/05/22 04:55:51;;;;;;;16.73;15.02;;;;;;;17.37;70.68;100226.59;4129698;28;20038;-62
2023/05/22 04:57:55;;;;;;;17.65;15.15;;;;;;;17.38;70.81;100225.72;4127992;28;20038;-63
2023/05/22 04:59:58;;;;;;;;;;;;;;;17.30;71.03;100223.19;4128666;28;20121;-62
2023/05/22 05:02:01;;;;;;;19.77;14.52;;;;;;;17.38;70.89;100228.34;4129896;28;19925;-63
2023/05/22 05:04:04;;;;;;;20.27;15.82;;;;;;;17.49;70.64;100225.50;4128566;28;20038;-62
2023/05/22 05:06:11;;;;;;;18.70;14.93;;;;;;;17.55;70.68;100228.03;4141395;28;20073;-62
2023/05/22 05:08:14;;;;;;;18.42;16.20;;;;;;;17.58;71.11;100225.34;4125915;28;20053;-62
2023/05/22 05:10:17;;;;;;;17.00;15.20;;;;;;;17.64;70.38;100225.25;4144021;28;20030;-62
2023/05/22 05:12:20;;;;;;;19.80;16.08;;;;;;;17.70;70.18;100230.38;4134302;28;20042;-62
2023/05/22 05:14:22;;;;;;;20.52;16.02;;;;;;;17.79;69.93;100237.22;4128569;28;20044;-62
2023/05/22 05:16:25;;;;;;;17.05;15.07;;;;;;;17.86;70.12;100224.81;4130218;28;20044;-62
2023/05/22 05:18:28;;;;;;;17.38;14.93;;;;;;;17.92;69.68;100240.53;4127694;28;20562;-62
2023/05/22 05:20:31;;;;;;;16.58;13.95;;;;;;;17.97;69.98;100233.41;4141606;28;20126;-62
2023/05/22 05:22:36;;;;;;;20.35;14.52;;;;;;;18.06;69.63;100234.97;4144043;28;20100;-63
2023/05/22 05:24:40;;;;;;;15.25;13.63;;;;;;;18.11;69.51;100233.97;4145239;28;20393;-63
2023/05/22 05:26:43;;;;;;;17.15;15.48;;;;;;;18.18;69.36;100225.97;4129110;28;20100;-62
2023/05/22 05:28:46;;;;;;;19.05;15.32;;;;;;;18.23;69.46;100230.22;4128195;28;20038;-62
2023/05/22 05:30:49;;;;;;;20.92;15.68;;;;;;;18.30;69.23;100225.72;4128427;28;20034;-63
2023/05/22 05:33:04;;;;;;;16.63;14.52;;;;;;;18.36;69.15;100224.72;4128196;28;20089;-62
2023/05/22 05:35:10;;;;;;;16.55;14.32;;;;;;;18.43;69.28;100221.91;4119689;28;20052;-62
2023/05/22 05:37:20;;;;;;;17.55;15.73;;;;;;;18.53;68.74;100224.31;4126224;28;20405;-62
2023/05/22 05:39:25;;;;;;;17.60;15.30;;;;;;;18.60;69.11;100225.91;4128822;28;20539;-62
2023/05/22 05:41:28;;;;;;;19.90;17.58;;;;;;;18.69;68.81;100222.22;4145322;22;20062;-62
2023/05/22 05:43:37;;;;;;;20.88;18.52;;;;;;;18.84;67.66;100220.09;4159063;28;20431;-62
2023/05/22 05:45:43;;;;;;;19.00;16.52;;;;;;;18.92;67.64;100229.59;4157771;28;20124;-62
2023/05/22 05:47:46;;;;;;;18.80;16.23;;;;;;;18.99;67.77;100220.66;4158432;28;20140;-61
2023/05/22 05:49:50;;;;;;;16.70;14.85;;;;;;;19.08;67.30;100230.97;4141405;28;20281;-62
2023/05/22 05:51:54;;;;;;;17.55;15.43;;;;;;;19.14;67.49;100230.81;4160411;28;20499;-62
2023/05/22 05:53:57;;;;;;;16.08;13.73;;;;;;;19.24;67.77;100230.59;4160396;28;20033;-61
2023/05/22 05:56:02;;;;;;;18.00;14.23;;;;;;;19.30;67.70;100230.41;4161244;28;20443;-61
2023/05/22 05:58:06;;;;;;;18.92;15.23;;;;;;;19.36;67.32;100236.41;4144999;28;20037;-62
2023/05/22 06:00:16;;;;;;;27.17;17.13;;;;;;;19.44;66.87;100228.31;4157857;28;20444;-62
2023/05/22 06:02:23;;;;;;;21.42;16.38;;;;;;;19.53;66.64;100235.97;4160276;28;20603;-61
2023/05/22 06:04:29;;;;;;;17.70;15.85;;;;;;;19.59;66.40;100240.22;4143210;28;20046;-62
2023/05/22 06:06:34;;;;;;;19.83;15.55;;;;;;;19.68;65.84;100241.72;4143471;28;20041;-62
2023/05/22 06:08:50;;;;;;;18.50;15.85;;;;;;;19.73;66.05;100241.59;4145629;28;20042;-62
2023/05/22 06:11:02;;;;;;;19.58;17.20;;;;;;;19.83;65.36;100240.47;4161024;28;20132;-61
2023/05/22 06:13:08;;;;;;;20.40;16.60;;;;;;;19.88;65.17;100244.72;4160448;28;20072;-62
2023/05/22 06:15:11;;;;;;;20.60;18.00;;;;;;;20.00;64.99;100247.94;4127594;28;20137;-62
2023/05/22 06:17:14;;;;;;;19.33;14.77;;;;;;;20.11;65.18;100251.13;4144213;28;20555;-62
2023/05/22 06:19:19;;;;;;;19.60;16.30;;;;;;;20.15;65.51;100251.91;4144210;28;20046;-62
2023/05/22 06:21:23;;;;;;;25.30;21.48;;;;;;;20.30;64.21;100243.53;4156626;28;20025;-62
2023/05/22 06:23:26;;;;;;;19.35;15.90;;;;;;;20.33;64.01;100243.44;4143493;28;20598;-62
2023/05/22 06:25:30;;;;;;;17.88;14.77;;;;;;;20.37;64.75;100242.44;4143017;28;20491;-62
2023/05/22 06:27:35;;;;;;;21.80;16.83;;;;;;;20.45;64.10;100244.84;4141950;28;20121;-62
2023/05/22 06:29:38;;;;;;;19.30;16.27;;;;;;;20.57;64.20;100244.50;4159489;28;20037;-62
2023/05/22 06:31:41;;;;;;;17.83;15.55;;;;;;;20.66;64.38;100242.47;4160444;28;20128;-62
2023/05/22 06:33:44;;;;;;;19.13;16.25;;;;;;;20.73;63.87;100246.69;4145172;28;20096;-62
2023/05/22 06:35:48;;;;;;;20.42;15.55;;;;;;;20.82;63.87;100248.16;4156757;28;20045;-62
2023/05/22 06:37:52;;;;;;;19.75;16.35;;;;;;;20.88;63.31;100251.50;4158505;28;20037;-62
2023/05/22 06:39:55;;;;;;;18.73;15.15;;;;;;;21.00;63.20;100246.72;4143576;28;20037;-62
2023/05/22 06:42:26;;;;;;;20.83;18.42;;;;;;;21.09;62.15;100243.78;4142157;28;20037;-63
2023/05/22 06:44:49;;;;;;;19.48;15.77;;;;;;;21.09;62.28;100239.34;4157686;28;20047;-62
2023/05/22 06:46:52;;;;;;;16.95;14.88;;;;;;;21.17;62.56;100241.72;4144571;28;20504;-62
2023/05/22 06:48:58;;;;;;;22.48;17.90;;;;;;;21.30;62.09;100238.69;4152228;28;20044;-62
2023/05/22 06:51:11;;;;;;;20.23;14.93;;;;;;;21.24;62.71;100248.53;4139831;28;20034;-62
2023/05/22 06:53:15;;;;;;;19.20;17.20;;;;;;;21.10;62.05;100242.88;4159060;28;20049;-62
2023/05/22 06:55:18;;;;;;;18.85;15.48;;;;;;;21.01;62.66;100243.16;4143802;28;20065;-62
2023/05/22 06:57:34;;;;;;;17.05;13.02;;;;;;;21.02;63.31;100245.75;4143860;28;20037;-62
2023/05/22 06:59:38;;;;;;;23.73;18.67;;;;;;;21.08;62.17;100244.69;4158681;28;20560;-62
2023/05/22 07:01:42;;;;;;;16.88;15.18;;;;;;;21.19;61.86;100247.84;4144731;28;20521;-62
2023/05/22 07:03:49;;;;;;;21.27;17.40;;;;;;;21.31;62.01;100240.44;4157989;28;20057;-62
2023/05/22 07:06:11;;;;;;;17.48;15.65;;;;;;;21.34;61.61;100245.59;4143519;28;20547;-62
2023/05/22 07:08:14;;;;;;;18.63;15.57;;;;;;;21.43;61.57;100255.88;4143880;28;20069;-62
2023/05/22 07:10:17;;;;;;;17.55;15.65;;;;;;;21.50;61.13;100254.75;4155132;28;20061;-62
2023/05/22 07:12:24;;;;;;;17.50;15.57;;;;;;;21.48;61.10;100251.28;4159160;28;20030;-62
2023/05/22 07:14:28;;;;;;;15.38;13.80;;;;;;;21.63;61.04;100257.84;4158373;28;20318;-62
2023/05/22 07:16:31;;;;;;;16.27;14.55;;;;;;;21.74;60.36;100255.72;4141210;28;20404;-62
2023/05/22 07:18:35;;;;;;;19.23;16.58;;;;;;;21.88;59.16;100260.50;4159873;28;20084;-62
2023/05/22 07:20:39;;;;;;;18.50;16.38;;;;;;;21.88;58.67;100260.50;4143531;28;20551;-62
2023/05/22 07:22:54;;;;;;;18.00;16.10;;;;;;;21.96;58.70;100263.72;4140017;28;20503;-62
2023/05/22 07:24:57;;;;;;;20.85;17.23;;;;;;;22.04;58.40;100262.59;4154212;28;20065;-62
2023/05/22 07:27:10;;;;;;;17.77;13.45;;;;;;;22.12;58.69;100263.16;4158470;28;20045;-62
2023/05/22 07:29:13;;;;;;;19.05;17.08;;;;;;;22.24;57.32;100270.66;4139472;28;20060;-62
2023/05/22 07:31:17;;;;;;;16.10;13.98;;;;;;;22.21;58.50;100264.59;4142687;28;20053;-62
2023/05/22 07:33:22;;;;;;;19.02;15.52;;;;;;;22.13;58.14;100272.84;4160278;28;20037;-62
2023/05/22 07:35:27;;;;;;;19.65;17.65;;;;;;;22.16;57.47;100275.38;4147259;28;20037;-61
2023/05/22 07:37:30;;;;;;;17.70;15.75;;;;;;;22.24;57.66;100269.78;4146123;28;20081;-61
2023/05/22 07:39:33;;;;;;;16.02;14.00;;;;;;;22.30;57.30;100264.28;4146311;28;20385;-61
2023/05/22 07:41:36;;;;;;;18.95;16.40;;;;;;;22.44;57.73;100267.31;4146266;28;20071;-61
2023/05/22 07:43:40;;;;;;;18.23;15.52;;;;;;;22.44;57.27;100271.72;4146505;28;20042;-62
2023/05/22 07:45:47;;;;;;;14.75;13.25;;;;;;;22.50;57.68;100271.47;4147114;28;20133;-64
2023/05/22 07:47:52;;;;;;;16.90;15.15;;;;;;;22.55;56.59;100258.94;4158039;28;20041;-63
2023/05/22 07:49:58;;;;;;;15.57;13.82;;;;;;;22.66;56.73;100264.69;4160628;28;20037;-64
2023/05/22 07:52:02;;;;;;;19.40;15.02;;;;;;;22.65;55.71;100260.28;4157442;28;20098;-61
2023/05/22 07:54:06;;;;;;;18.63;16.70;;;;;;;22.60;55.46;100272.00;4159838;28;20473;-64
2023/05/22 07:56:10;;;;;;;19.05;14.52;;;;;;;22.75;55.44;100265.22;4146430;28;20050;-63
2023/05/22 07:58:14;;;;;;;15.75;13.57;;;;;;;22.87;55.75;100275.34;4145564;28;20056;-61
2023/05/22 08:00:20;;;;;;;13.40;12.10;;;;;;;22.94;55.70;100268.88;4146005;28;20513;-62
2023/05/22 08:02:23;;;;;;;14.25;12.75;;;;;;;22.96;54.96;100269.66;4146635;28;20523;-62
2023/05/22 08:04:28;;;;;;;15.55;12.35;;;;;;;23.12;55.12;100267.28;4147361;28;20069;-62
2023/05/22 08:06:33;;;;;;;15.95;12.43;;;;;;;23.23;54.39;100266.88;4147316;28;20416;-62
2023/05/22 08:08:38;;;;;;;16.58;13.55;;;;;;;23.30;53.28;100270.97;4147971;28;20041;-62
2023/05/22 08:10:41;;;;;;;17.20;12.82;;;;;;;23.38;53.60;100264.47;4146899;28;20030;-62
2023/05/22 08:13:05;;;;;;;15.88;13.93;;;;;;;23.39;52.49;100271.50;4159401;28;20083;-62
2023/05/22 08:15:08;;;;;;;14.85;13.15;;;;;;;23.53;51.41;100269.13;4148154;28;20037;-61
2023/05/22 08:17:11;;;;;;;17.02;13.27;;;;;;;23.42;52.00;100266.97;4147622;28;20046;-62
2023/05/22 08:19:15;;;;;;;16.17;13.60;;;;;;;23.38;51.96;100275.09;4146889;28;20038;-62
2023/05/22 08:21:18;;;;;;;15.32;12.18;;;;;;;23.43;52.58;100283.72;4145331;28;20567;-61
2023/05/22 08:23:21;;;;;;;15.15;12.65;;;;;;;23.56;52.19;100273.47;4146629;28;20495;-62
2023/05/22 08:25:25;;;;;;;13.73;11.43;;;;;;;23.69;51.97;100279.97;4146759;28;20069;-61
2023/05/22 08:27:28;;;;;;;14.10;12.57;;;;;;;23.81;51.44;100281.22;4145912;28;20042;-62
2023/05/22 08:29:31;;;;;;;13.38;11.90;;;;;;;23.86;51.52;100277.47;4143809;28;20132;-62
2023/05/22 08:31:34;;;;;;;14.48;13.02;;;;;;;24.01;51.89;100281.22;4144769;28;20038;-62
2023/05/22 08:33:37;;;;;;;13.65;11.80;;;;;;;24.04;51.60;100285.53;4146159;28;20041;-62
2023/05/22 08:35:40;;;;;;;13.52;11.85;;;;;;;24.14;51.82;100289.50;4146632;28;20062;-62
2023/05/22 08:37:43;;;;;;;15.05;12.23;;;;;;;24.17;51.52;100283.22;4146465;28;20591;-62
2023/05/22 08:39:46;;;;;;;17.25;12.98;;;;;;;24.34;50.87;100285.97;4146502;28;20073;-62
2023/05/22 08:41:50;;;;;;;15.43;12.07;;;;;;;24.30;50.71;100271.09;4162036;28;20080;-62
2023/05/22 08:43:53;;;;;;;;;;;;;;;24.24;50.88;100284.66;4143171;28;20073;-62
2023/05/22 08:46:00;;;;;;;15.95;12.60;;;;;;;24.13;51.15;100284.28;4145809;28;19927;-62
2023/05/22 08:48:05;;;;;;;15.23;11.45;;;;;;;24.11;51.16;100279.03;4161688;28;20035;-62
2023/05/22 08:50:09;;;;;;;17.55;13.55;;;;;;;23.92;50.83;100265.72;4146854;28;20053;-62
2023/05/22 08:52:13;;;;;;;;;;;;;;;23.91;51.17;100274.59;4147200;28;20125;-62
2023/05/22 08:54:18;;;;;;;14.20;12.70;;;;;;;23.91;51.18;100269.28;4160469;28;20228;-62
2023/05/22 08:56:21;;;;;;;12.02;10.70;;;;;;;23.87;51.76;100268.59;4146096;28;20044;-62
2023/05/22 08:58:26;;;;;;;14.50;11.87;;;;;;;23.79;51.94;100275.97;4146696;28;20579;-61
2023/05/22 09:00:30;;;;;;;13.85;11.57;;;;;;;23.75;52.16;100270.88;4161398;28;20037;-61
2023/05/22 09:02:33;;;;;;;13.90;12.38;;;;;;;23.76;53.50;100264.59;4146537;28;20030;-62
2023/05/22 09:04:36;;;;;;;13.65;12.25;;;;;;;23.73;53.92;100264.75;4145917;28;20056;-61
2023/05/22 09:06:39;;;;;;;14.75;10.85;;;;;;;23.77;53.31;100271.66;4145271;28;20088;-61
2023/05/22 09:08:42;;;;;;;12.93;11.45;;;;;;;23.70;52.85;100266.63;4142686;28;20074;-61
2023/05/22 09:10:45;;;;;;;12.90;11.32;;;;;;;23.59;52.73;100263.56;4143074;28;20144;-63
2023/05/22 09:13:02;;;;;;;12.85;10.55;;;;;;;23.62;53.44;100268.72;4145816;28;20066;-61
2023/05/22 09:15:11;;;;;;;14.05;10.70;;;;;;;23.76;53.61;100261.97;4142559;28;20038;-61
2023/05/22 09:17:15;;;;;;;12.23;11.02;;;;;;;24.05;52.69;100260.72;4143766;28;20064;-63
2023/05/22 09:19:19;;;;;;;14.50;12.90;;;;;;;23.93;52.02;100262.09;4143663;28;20613;-63
2023/05/22 09:21:28;;;;;;;11.13;9.90;;;;;;;23.88;52.73;100261.47;4142166;28;20088;-61
2023/05/22 09:23:32;;;;;;;15.35;13.75;;;;;;;24.05;51.88;100263.38;4144489;28;20045;-63
2023/05/22 09:25:35;;;;;;;16.00;12.20;;;;;;;24.23;51.46;100264.31;4145187;28;20523;-62
2023/05/22 09:27:38;;;;;;;14.50;12.27;;;;;;;24.46;50.41;100260.59;4145969;28;20530;-63
2023/05/22 09:29:48;;;;;;;15.57;11.75;;;;;;;24.68;50.24;100252.50;4144141;28;20452;-61
2023/05/22 09:31:53;;;;;;;17.23;11.65;;;;;;;24.80;49.93;100250.19;4143631;28;20038;-63